Airfield :
LOGIN :

Register | Disclaimer

   EN    FR    IT 

 










Legend :    VFR   Marginal VFR   IFR   Intensive IFR   Very Intensive IFR
Visi :
Ceiling :
>= 8 km
>= 3000ft
5 to 8 km
1000 to 3000 ft
1500m to 5 km
500 to 1000 ft
800 to 1500m
200 to 500 ft
< 800m
< 200 ft
Symbols :   Thunderstorms  Fog  Heavy snow  Heavy precipitations  Wind > 20 kt
SIGMETs :     Misc.  Thunderstorms  Icing  Turbulence  Mountain Waves  Volcanic Ashes






- Airport Elevation : 79 ft
- IATA code : SPU


LDSP - Split

CURRENT METAR :
  • 200530Z VRB03KT CAVOK 19/16 Q1011 NOSIG

EXPIRED METARs :
  • 200500Z 31006KT CAVOK 20/16 Q1010 NOSIG
  • 200430Z 26004KT 240V300 CAVOK 19/16 Q1010 NOSIG
  • 200400Z AUTO 36005KT 300V090 CAVOK 19/16 Q1010 NOSIG
  • 200330Z AUTO 30009KT CAVOK 20/16 Q1009 NOSIG
  • 200300Z AUTO VRB05KT CAVOK 20/16 Q1009 NOSIG

TAF TAF LDSP
Valid from the 20 at 06:00 until the 21 at 06:00 UTC


200525Z 2006/2106 31008KT 9999 FEW030 TX25/2012Z TN18/2104Z
PROB30 2011/2014 23010KT



MET'MAP, your aeronautical weather chart ! - Copyright ORBIFLY December 2007 - Disclaimer

ORBIFLY MET'MAP TEAM :

Programming & Development : Alexandra Zaïnal
Concept & original design : Baudouin d'Aumeries
Assistance for programming : Marc-Olivier Méhu
Technical & hardware support : Manuel Goepfert

Contact : metmap@orbifly.com




SOURCES & CREDITS :

   NOAA